sensor_id;sensor_type;location;lat;lon;timestamp;pressure;altitude;pressure_sealevel;temperature;humidity
17054;BME280;8643;48.824;11.422;2024-02-21T00:00:59;97919.34;;;2.81;100.00
17054;BME280;8643;48.824;11.422;2024-02-21T00:03:27;97920.44;;;2.85;100.00
17054;BME280;8643;48.824;11.422;2024-02-21T00:05:57;97921.28;;;2.85;100.00
17054;BME280;8643;48.824;11.422;2024-02-21T00:08:26;97918.34;;;2.87;100.00
17054;BME280;8643;48.824;11.422;2024-02-21T00:10:55;97917.28;;;2.93;100.00
17054;BME280;8643;48.824;11.422;2024-02-21T00:13:23;97916.91;;;3.11;100.00
17054;BME280;8643;48.824;11.422;2024-02-21T00:15:52;97913.75;;;3.25;100.00
17054;BME280;8643;48.824;11.422;2024-02-21T00:18:20;97912.69;;;3.31;100.00
17054;BME280;8643;48.824;11.422;2024-02-21T00:20:53;97895.94;;;3.34;100.00
17054;BME280;8643;48.824;11.422;2024-02-21T00:23:23;97908.19;;;3.47;100.00
17054;BME280;8643;48.824;11.422;2024-02-21T00:25:51;97897.09;;;3.48;100.00
17054;BME280;8643;48.824;11.422;2024-02-21T00:28:20;97899.00;;;3.53;100.00
17054;BME280;8643;48.824;11.422;2024-02-21T00:30:48;97897.41;;;3.52;100.00
17054;BME280;8643;48.824;11.422;2024-02-21T00:33:20;97888.69;;;3.50;100.00
17054;BME280;8643;48.824;11.422;2024-02-21T00:35:49;97888.19;;;3.53;100.00
17054;BME280;8643;48.824;11.422;2024-02-21T00:38:17;97883.03;;;3.57;100.00
17054;BME280;8643;48.824;11.422;2024-02-21T00:40:47;97886.31;;;3.59;100.00
17054;BME280;8643;48.824;11.422;2024-02-21T00:43:16;97880.34;;;3.57;100.00
17054;BME280;8643;48.824;11.422;2024-02-21T00:45:44;97877.09;;;3.55;100.00
17054;BME280;8643;48.824;11.422;2024-02-21T00:48:13;97873.03;;;3.57;100.00
17054;BME280;8643;48.824;11.422;2024-02-21T00:50:42;97877.34;;;3.53;100.00
17054;BME280;8643;48.824;11.422;2024-02-21T00:53:11;97879.53;;;3.56;100.00
17054;BME280;8643;48.824;11.422;2024-02-21T00:55:39;97875.19;;;3.55;100.00
17054;BME280;8643;48.824;11.422;2024-02-21T00:58:09;97875.47;;;3.54;100.00
17054;BME280;8643;48.824;11.422;2024-02-21T01:00:38;97868.69;;;3.51;100.00
17054;BME280;8643;48.824;11.422;2024-02-21T01:03:06;97866.00;;;3.56;100.00
17054;BME280;8643;48.824;11.422;2024-02-21T01:05:35;97859.75;;;3.56;100.00
17054;BME280;8643;48.824;11.422;2024-02-21T01:08:04;97864.66;;;3.59;100.00
17054;BME280;8643;48.824;11.422;2024-02-21T01:10:33;97860.56;;;3.56;100.00
17054;BME280;8643;48.824;11.422;2024-02-21T01:13:01;97857.06;;;3.56;100.00
17054;BME280;8643;48.824;11.422;2024-02-21T01:15:31;97855.69;;;3.58;100.00
17054;BME280;8643;48.824;11.422;2024-02-21T01:18:00;97848.16;;;3.60;100.00
17054;BME280;8643;48.824;11.422;2024-02-21T01:20:29;97845.94;;;3.52;100.00
17054;BME280;8643;48.824;11.422;2024-02-21T01:22:58;97850.25;;;3.53;100.00
17054;BME280;8643;48.824;11.422;2024-02-21T01:25:26;97850.78;;;3.50;100.00
17054;BME280;8643;48.824;11.422;2024-02-21T01:27:55;97850.22;;;3.43;100.00
17054;BME280;8643;48.824;11.422;2024-02-21T01:30:24;97842.09;;;3.43;100.00
17054;BME280;8643;48.824;11.422;2024-02-21T01:32:53;97835.63;;;3.49;100.00
17054;BME280;8643;48.824;11.422;2024-02-21T01:35:22;97835.13;;;3.52;100.00
17054;BME280;8643;48.824;11.422;2024-02-21T01:37:50;97829.38;;;3.48;100.00
17054;BME280;8643;48.824;11.422;2024-02-21T01:40:19;97820.19;;;3.49;100.00
17054;BME280;8643;48.824;11.422;2024-02-21T01:42:48;97826.69;;;3.48;100.00
17054;BME280;8643;48.824;11.422;2024-02-21T01:45:16;97822.06;;;3.44;100.00
17054;BME280;8643;48.824;11.422;2024-02-21T01:47:46;97822.34;;;3.42;100.00
17054;BME280;8643;48.824;11.422;2024-02-21T01:50:17;97821.75;;;3.35;100.00
17054;BME280;8643;48.824;11.422;2024-02-21T01:52:48;97820.13;;;3.34;100.00
17054;BME280;8643;48.824;11.422;2024-02-21T01:55:17;97805.50;;;3.35;100.00
17054;BME280;8643;48.824;11.422;2024-02-21T01:57:46;97803.06;;;3.39;100.00
17054;BME280;8643;48.824;11.422;2024-02-21T02:00:16;97797.94;;;3.37;100.00
17054;BME280;8643;48.824;11.422;2024-02-21T02:02:45;97793.63;;;3.41;100.00
17054;BME280;8643;48.824;11.422;2024-02-21T02:05:16;97795.81;;;3.49;100.00
17054;BME280;8643;48.824;11.422;2024-02-21T02:07:45;97796.91;;;3.48;100.00
17054;BME280;8643;48.824;11.422;2024-02-21T02:10:14;97787.69;;;3.49;100.00
17054;BME280;8643;48.824;11.422;2024-02-21T02:12:43;97789.88;;;3.47;100.00
17054;BME280;8643;48.824;11.422;2024-02-21T02:15:12;97777.13;;;3.48;100.00
17054;BME280;8643;48.824;11.422;2024-02-21T02:17:40;97786.03;;;3.43;100.00
17054;BME280;8643;48.824;11.422;2024-02-21T02:20:10;97774.13;;;3.39;100.00
17054;BME280;8643;48.824;11.422;2024-02-21T02:22:43;97773.88;;;3.46;100.00
17054;BME280;8643;48.824;11.422;2024-02-21T02:25:15;97770.38;;;3.51;100.00
17054;BME280;8643;48.824;11.422;2024-02-21T02:27:43;97764.44;;;3.54;100.00
17054;BME280;8643;48.824;11.422;2024-02-21T02:30:13;97770.13;;;3.57;100.00
17054;BME280;8643;48.824;11.422;2024-02-21T02:32:45;97763.09;;;3.56;100.00
17054;BME280;8643;48.824;11.422;2024-02-21T02:35:14;97753.59;;;3.54;100.00
17054;BME280;8643;48.824;11.422;2024-02-21T02:37:48;97755.47;;;3.53;100.00
17054;BME280;8643;48.824;11.422;2024-02-21T02:40:19;97759.28;;;3.52;100.00
17054;BME280;8643;48.824;11.422;2024-02-21T02:42:48;97758.72;;;3.55;100.00
17054;BME280;8643;48.824;11.422;2024-02-21T02:45:17;97762.53;;;3.54;100.00
17054;BME280;8643;48.824;11.422;2024-02-21T02:47:46;97754.94;;;3.51;100.00
17054;BME280;8643;48.824;11.422;2024-02-21T02:50:15;97756.84;;;3.51;100.00
17054;BME280;8643;48.824;11.422;2024-02-21T02:52:45;97753.03;;;3.52;100.00
17054;BME280;8643;48.824;11.422;2024-02-21T02:55:14;97746.28;;;3.49;100.00
17054;BME280;8643;48.824;11.422;2024-02-21T02:57:44;97750.59;;;3.50;100.00
17054;BME280;8643;48.824;11.422;2024-02-21T03:00:14;97757.38;;;3.53;100.00
17054;BME280;8643;48.824;11.422;2024-02-21T03:02:46;97758.47;;;3.57;100.00
17054;BME280;8643;48.824;11.422;2024-02-21T03:05:19;97749.28;;;3.68;100.00
17054;BME280;8643;48.824;11.422;2024-02-21T03:07:49;97752.84;;;3.74;100.00
17054;BME280;8643;48.824;11.422;2024-02-21T03:10:17;97748.75;;;3.71;100.00
17054;BME280;8643;48.824;11.422;2024-02-21T03:12:48;97747.16;;;3.70;100.00
17054;BME280;8643;48.824;11.422;2024-02-21T03:15:16;97744.72;;;3.69;100.00
17054;BME280;8643;48.824;11.422;2024-02-21T03:17:45;97733.88;;;3.69;100.00
17054;BME280;8643;48.824;11.422;2024-02-21T03:20:13;97730.91;;;3.70;100.00
17054;BME280;8643;48.824;11.422;2024-02-21T03:22:42;97732.50;;;3.71;100.00
17054;BME280;8643;48.824;11.422;2024-02-21T03:25:10;97726.56;;;3.69;100.00
17054;BME280;8643;48.824;11.422;2024-02-21T03:27:39;97727.63;;;3.68;100.00
17054;BME280;8643;48.824;11.422;2024-02-21T03:30:11;97720.84;;;3.60;100.00
17054;BME280;8643;48.824;11.422;2024-02-21T03:32:40;97718.94;;;3.61;100.00
17054;BME280;8643;48.824;11.422;2024-02-21T03:35:08;97714.91;;;3.63;100.00
17054;BME280;8643;48.824;11.422;2024-02-21T03:37:37;97715.19;;;3.62;100.00
17054;BME280;8643;48.824;11.422;2024-02-21T03:40:08;97725.16;;;3.56;100.00
17054;BME280;8643;48.824;11.422;2024-02-21T03:42:38;97717.84;;;3.57;100.00
17054;BME280;8643;48.824;11.422;2024-02-21T03:45:09;97718.41;;;3.59;100.00
17054;BME280;8643;48.824;11.422;2024-02-21T03:47:38;97717.56;;;3.58;100.00
17054;BME280;8643;48.824;11.422;2024-02-21T03:50:07;97721.13;;;3.59;100.00
17054;BME280;8643;48.824;11.422;2024-02-21T03:52:36;97717.03;;;3.61;100.00
17054;BME280;8643;48.824;11.422;2024-02-21T03:55:05;97721.66;;;3.61;100.00
17054;BME280;8643;48.824;11.422;2024-02-21T03:57:34;97720.03;;;3.60;100.00
17054;BME280;8643;48.824;11.422;2024-02-21T04:00:05;97714.59;;;3.60;100.00
17054;BME280;8643;48.824;11.422;2024-02-21T04:02:40;97720.03;;;3.60;100.00
17054;BME280;8643;48.824;11.422;2024-02-21T04:05:08;97715.44;;;3.60;100.00
17054;BME280;8643;48.824;11.422;2024-02-21T04:07:39;97712.19;;;3.63;100.00
17054;BME280;8643;48.824;11.422;2024-02-21T04:10:08;97706.47;;;3.65;100.00
17054;BME280;8643;48.824;11.422;2024-02-21T04:12:37;97702.72;;;3.66;100.00
17054;BME280;8643;48.824;11.422;2024-02-21T04:15:07;97703.25;;;3.68;100.00
17054;BME280;8643;48.824;11.422;2024-02-21T04:17:36;97699.47;;;3.64;100.00
17054;BME280;8643;48.824;11.422;2024-02-21T04:20:15;97692.94;;;3.60;100.00
17054;BME280;8643;48.824;11.422;2024-02-21T04:22:44;97694.31;;;3.62;100.00
17054;BME280;8643;48.824;11.422;2024-02-21T04:25:13;97695.13;;;3.63;100.00
17054;BME280;8643;48.824;11.422;2024-02-21T04:27:41;97686.97;;;3.58;100.00
17054;BME280;8643;48.824;11.422;2024-02-21T04:30:10;97681.31;;;3.54;100.00
17054;BME280;8643;48.824;11.422;2024-02-21T04:32:39;97673.19;;;3.54;100.00
17054;BME280;8643;48.824;11.422;2024-02-21T04:35:09;97672.38;;;3.54;100.00
17054;BME280;8643;48.824;11.422;2024-02-21T04:37:38;97669.09;;;3.52;100.00
17054;BME280;8643;48.824;11.422;2024-02-21T04:40:08;97666.66;;;3.55;100.00
17054;BME280;8643;48.824;11.422;2024-02-21T04:42:36;97661.53;;;3.54;100.00
17054;BME280;8643;48.824;11.422;2024-02-21T04:45:07;97660.72;;;3.53;100.00
17054;BME280;8643;48.824;11.422;2024-02-21T04:47:35;97666.38;;;3.57;100.00
17054;BME280;8643;48.824;11.422;2024-02-21T04:50:04;97662.88;;;3.61;100.00
17054;BME280;8643;48.824;11.422;2024-02-21T04:52:34;97661.53;;;3.59;100.00
17054;BME280;8643;48.824;11.422;2024-02-21T04:55:04;97658.84;;;3.64;100.00
17054;BME280;8643;48.824;11.422;2024-02-21T04:57:33;97655.03;;;3.60;100.00
17054;BME280;8643;48.824;11.422;2024-02-21T05:00:01;97656.94;;;3.54;100.00
17054;BME280;8643;48.824;11.422;2024-02-21T05:02:30;97661.53;;;3.54;100.00
17054;BME280;8643;48.824;11.422;2024-02-21T05:04:59;97649.59;;;3.49;100.00
17054;BME280;8643;48.824;11.422;2024-02-21T05:07:27;97640.94;;;3.47;100.00
17054;BME280;8643;48.824;11.422;2024-02-21T05:09:57;97637.41;;;3.47;100.00
17054;BME280;8643;48.824;11.422;2024-02-21T05:12:26;97641.75;;;3.48;100.00
17054;BME280;8643;48.824;11.422;2024-02-21T05:14:55;97640.94;;;3.47;100.00
17054;BME280;8643;48.824;11.422;2024-02-21T05:17:23;97633.09;;;3.46;100.00
17054;BME280;8643;48.824;11.422;2024-02-21T05:19:52;97632.50;;;3.39;100.00
17054;BME280;8643;48.824;11.422;2024-02-21T05:22:21;97626.28;;;3.33;100.00
17054;BME280;8643;48.824;11.422;2024-02-21T05:24:50;97629.00;;;3.28;100.00
17054;BME280;8643;48.824;11.422;2024-02-21T05:27:20;97621.41;;;3.25;100.00
17054;BME280;8643;48.824;11.422;2024-02-21T05:29:48;97617.06;;;3.19;100.00
17054;BME280;8643;48.824;11.422;2024-02-21T05:32:17;97610.84;;;3.18;100.00
17054;BME280;8643;48.824;11.422;2024-02-21T05:34:48;97610.84;;;3.18;100.00
17054;BME280;8643;48.824;11.422;2024-02-21T05:37:18;97613.28;;;3.20;100.00
17054;BME280;8643;48.824;11.422;2024-02-21T05:39:46;97601.88;;;3.18;100.00
17054;BME280;8643;48.824;11.422;2024-02-21T05:42:15;97604.31;;;3.19;100.00
17054;BME280;8643;48.824;11.422;2024-02-21T05:44:45;97605.69;;;3.22;100.00
17054;BME280;8643;48.824;11.422;2024-02-21T05:47:13;97606.50;;;3.22;100.00
17054;BME280;8643;48.824;11.422;2024-02-21T05:49:43;97614.09;;;3.25;100.00
17054;BME280;8643;48.824;11.422;2024-02-21T05:52:11;97615.47;;;3.28;100.00
17054;BME280;8643;48.824;11.422;2024-02-21T05:54:40;97607.06;;;3.29;100.00
17054;BME280;8643;48.824;11.422;2024-02-21T05:57:08;97605.16;;;3.30;100.00
17054;BME280;8643;48.824;11.422;2024-02-21T05:59:38;97604.63;;;3.33;100.00
17054;BME280;8643;48.824;11.422;2024-02-21T06:02:10;97601.41;;;3.36;100.00
17054;BME280;8643;48.824;11.422;2024-02-21T06:04:39;97591.38;;;3.37;100.00
17054;BME280;8643;48.824;11.422;2024-02-21T06:07:08;97591.91;;;3.34;100.00
17054;BME280;8643;48.824;11.422;2024-02-21T06:09:36;97582.44;;;3.31;100.00
17054;BME280;8643;48.824;11.422;2024-02-21T06:12:05;97577.56;;;3.28;100.00
17054;BME280;8643;48.824;11.422;2024-02-21T06:14:34;97579.44;;;3.27;100.00
17054;BME280;8643;48.824;11.422;2024-02-21T06:17:03;97573.75;;;3.24;100.00
17054;BME280;8643;48.824;11.422;2024-02-21T06:19:33;97583.50;;;3.25;100.00
17054;BME280;8643;48.824;11.422;2024-02-21T06:22:02;97578.91;;;3.30;100.00
17054;BME280;8643;48.824;11.422;2024-02-21T06:24:35;97578.09;;;3.35;100.00
17054;BME280;8643;48.824;11.422;2024-02-21T06:27:04;97581.34;;;3.37;100.00
17054;BME280;8643;48.824;11.422;2024-02-21T06:29:37;97590.31;;;3.43;100.00
17054;BME280;8643;48.824;11.422;2024-02-21T06:32:06;97589.75;;;3.41;100.00
17054;BME280;8643;48.824;11.422;2024-02-21T06:34:36;97591.63;;;3.35;100.00
17054;BME280;8643;48.824;11.422;2024-02-21T06:37:05;97586.50;;;3.34;100.00
17054;BME280;8643;48.824;11.422;2024-02-21T06:39:34;97595.41;;;3.29;100.00
17054;BME280;8643;48.824;11.422;2024-02-21T06:42:04;97596.50;;;3.33;100.00
17054;BME280;8643;48.824;11.422;2024-02-21T06:44:33;97594.88;;;3.32;100.00
17054;BME280;8643;48.824;11.422;2024-02-21T06:47:07;97585.69;;;3.33;100.00
17054;BME280;8643;48.824;11.422;2024-02-21T06:49:37;97582.44;;;3.31;100.00
17054;BME280;8643;48.824;11.422;2024-02-21T06:52:06;97581.88;;;3.29;100.00
17054;BME280;8643;48.824;11.422;2024-02-21T06:54:34;97587.56;;;3.22;100.00
17054;BME280;8643;48.824;11.422;2024-02-21T06:57:03;97585.13;;;3.21;100.00
17054;BME280;8643;48.824;11.422;2024-02-21T06:59:32;97588.34;;;3.18;100.00
17054;BME280;8643;48.824;11.422;2024-02-21T07:02:00;97593.22;;;3.26;100.00
17054;BME280;8643;48.824;11.422;2024-02-21T07:04:29;97596.81;;;3.52;100.00
17054;BME280;8643;48.824;11.422;2024-02-21T07:06:59;97594.91;;;3.63;100.00
17054;BME280;8643;48.824;11.422;2024-02-21T07:09:27;97606.28;;;3.85;100.00
17054;BME280;8643;48.824;11.422;2024-02-21T07:11:59;97608.69;;;4.18;100.00
17054;BME280;8643;48.824;11.422;2024-02-21T07:14:28;97599.13;;;4.56;100.00
17054;BME280;8643;48.824;11.422;2024-02-21T07:16:56;97592.84;;;5.16;100.00
17054;BME280;8643;48.824;11.422;2024-02-21T07:19:25;97596.94;;;5.58;100.00
17054;BME280;8643;48.824;11.422;2024-02-21T07:21:54;97595.16;;;5.78;100.00
17054;BME280;8643;48.824;11.422;2024-02-21T07:24:23;97593.84;;;6.04;100.00
17054;BME280;8643;48.824;11.422;2024-02-21T07:26:52;97592.19;;;6.09;100.00
17054;BME280;8643;48.824;11.422;2024-02-21T07:29:21;97595.44;;;6.11;100.00
17054;BME280;8643;48.824;11.422;2024-02-21T07:31:49;97580.53;;;6.32;100.00
17054;BME280;8643;48.824;11.422;2024-02-21T07:34:19;97583.00;;;7.01;100.00
17054;BME280;8643;48.824;11.422;2024-02-21T07:36:47;97584.53;;;6.64;100.00
17054;BME280;8643;48.824;11.422;2024-02-21T07:39:16;97580.44;;;6.42;100.00
17054;BME280;8643;48.824;11.422;2024-02-21T07:41:46;97581.00;;;6.88;100.00
17054;BME280;8643;48.824;11.422;2024-02-21T07:44:16;97572.25;;;7.29;100.00
17054;BME280;8643;48.824;11.422;2024-02-21T07:46:44;97568.63;;;8.18;100.00
17054;BME280;8643;48.824;11.422;2024-02-21T07:49:13;97558.63;;;8.14;100.00
17054;BME280;8643;48.824;11.422;2024-02-21T07:51:42;97542.59;;;8.68;100.00
17054;BME280;8643;48.824;11.422;2024-02-21T07:54:10;97541.34;;;9.02;100.00
17054;BME280;8643;48.824;11.422;2024-02-21T07:56:43;97530.78;;;9.23;97.44
17054;BME280;8643;48.824;11.422;2024-02-21T07:59:13;97534.63;;;9.44;94.94
17054;BME280;8643;48.824;11.422;2024-02-21T08:01:42;97543.06;;;8.97;95.31
17054;BME280;8643;48.824;11.422;2024-02-21T08:04:12;97536.03;;;8.55;98.19
17054;BME280;8643;48.824;11.422;2024-02-21T08:06:40;97546.44;;;8.67;96.94
17054;BME280;8643;48.824;11.422;2024-02-21T08:09:10;97539.38;;;8.66;97.20
17054;BME280;8643;48.824;11.422;2024-02-21T08:11:39;97545.41;;;8.76;99.23
17054;BME280;8643;48.824;11.422;2024-02-21T08:14:07;97546.41;;;8.25;99.29
17054;BME280;8643;48.824;11.422;2024-02-21T08:16:37;97544.28;;;8.22;99.55
17054;BME280;8643;48.824;11.422;2024-02-21T08:19:06;97536.72;;;8.88;97.79
17054;BME280;8643;48.824;11.422;2024-02-21T08:21:34;97545.09;;;8.22;100.00
17054;BME280;8643;48.824;11.422;2024-02-21T08:24:03;97554.53;;;8.44;99.75
17054;BME280;8643;48.824;11.422;2024-02-21T08:26:32;97563.44;;;8.50;99.80
17054;BME280;8643;48.824;11.422;2024-02-21T08:29:00;97561.81;;;8.76;98.92
17054;BME280;8643;48.824;11.422;2024-02-21T08:31:29;97560.56;;;8.27;99.53
17054;BME280;8643;48.824;11.422;2024-02-21T08:34:01;97544.22;;;8.55;98.01
17054;BME280;8643;48.824;11.422;2024-02-21T08:36:31;97541.34;;;8.18;99.32
17054;BME280;8643;48.824;11.422;2024-02-21T08:39:01;97530.28;;;8.56;100.00
17054;BME280;8643;48.824;11.422;2024-02-21T08:41:32;97523.50;;;9.18;98.67
17054;BME280;8643;48.824;11.422;2024-02-21T08:44:22;97517.31;;;9.49;94.07
17054;BME280;8643;48.824;11.422;2024-02-21T08:46:54;97517.63;;;10.01;93.69
17054;BME280;8643;48.824;11.422;2024-02-21T08:49:24;97511.66;;;10.71;91.81
17054;BME280;8643;48.824;11.422;2024-02-21T08:52:01;97511.31;;;10.63;88.27
17054;BME280;8643;48.824;11.422;2024-02-21T08:54:31;97515.84;;;10.77;86.01
17054;BME280;8643;48.824;11.422;2024-02-21T08:57:01;97510.19;;;10.64;88.06
17054;BME280;8643;48.824;11.422;2024-02-21T08:59:30;97517.03;;;11.72;85.21
17054;BME280;8643;48.824;11.422;2024-02-21T09:01:59;97503.34;;;11.28;83.48
17054;BME280;8643;48.824;11.422;2024-02-21T09:04:29;97504.97;;;11.21;86.25
17054;BME280;8643;48.824;11.422;2024-02-21T09:06:58;97509.78;;;11.59;84.62
17054;BME280;8643;48.824;11.422;2024-02-21T09:09:26;97499.97;;;11.05;84.22
17054;BME280;8643;48.824;11.422;2024-02-21T09:11:56;97505.91;;;10.98;86.29
17054;BME280;8643;48.824;11.422;2024-02-21T09:14:25;97501.53;;;10.80;85.16
17054;BME280;8643;48.824;11.422;2024-02-21T09:16:53;97489.28;;;10.95;85.39
17054;BME280;8643;48.824;11.422;2024-02-21T09:19:23;97498.59;;;10.27;85.35
17054;BME280;8643;48.824;11.422;2024-02-21T09:21:53;97484.34;;;10.08;86.78
17054;BME280;8643;48.824;11.422;2024-02-21T09:24:21;97488.22;;;9.30;90.02
17054;BME280;8643;48.824;11.422;2024-02-21T09:26:50;97488.47;;;9.97;86.99
17054;BME280;8643;48.824;11.422;2024-02-21T09:29:18;97484.84;;;9.79;86.20
17054;BME280;8643;48.824;11.422;2024-02-21T09:31:53;97480.50;;;9.78;86.16
17054;BME280;8643;48.824;11.422;2024-02-21T09:34:22;97475.09;;;10.75;85.72
17054;BME280;8643;48.824;11.422;2024-02-21T09:36:51;97468.19;;;11.13;82.41
17054;BME280;8643;48.824;11.422;2024-02-21T09:39:20;97463.50;;;11.48;82.17
17054;BME280;8643;48.824;11.422;2024-02-21T09:41:54;97475.13;;;11.28;81.68
17054;BME280;8643;48.824;11.422;2024-02-21T09:44:36;97458.66;;;10.67;81.49
17054;BME280;8643;48.824;11.422;2024-02-21T09:47:10;97449.91;;;10.56;80.06
17054;BME280;8643;48.824;11.422;2024-02-21T09:49:42;97455.94;;;11.28;80.46
17054;BME280;8643;48.824;11.422;2024-02-21T09:52:14;97447.19;;;11.52;79.02
17054;BME280;8643;48.824;11.422;2024-02-21T09:54:45;97453.97;;;12.49;74.54
17054;BME280;8643;48.824;11.422;2024-02-21T09:57:14;97450.91;;;11.38;75.44
17054;BME280;8643;48.824;11.422;2024-02-21T09:59:44;97443.03;;;11.46;76.58
17054;BME280;8643;48.824;11.422;2024-02-21T10:02:13;97445.81;;;11.84;78.78
17054;BME280;8643;48.824;11.422;2024-02-21T10:04:42;97443.28;;;11.70;78.13
17054;BME280;8643;48.824;11.422;2024-02-21T10:07:11;97447.38;;;11.55;76.70
17054;BME280;8643;48.824;11.422;2024-02-21T10:09:39;97450.97;;;12.03;75.19
17054;BME280;8643;48.824;11.422;2024-02-21T10:12:12;97443.25;;;12.86;74.23
17054;BME280;8643;48.824;11.422;2024-02-21T10:14:41;97436.47;;;13.47;72.98
17054;BME280;8643;48.824;11.422;2024-02-21T10:17:16;97433.47;;;12.76;73.01
17054;BME280;8643;48.824;11.422;2024-02-21T10:19:46;97436.88;;;12.73;71.93
17054;BME280;8643;48.824;11.422;2024-02-21T10:22:15;97427.19;;;12.07;75.32
17054;BME280;8643;48.824;11.422;2024-02-21T10:24:44;97422.22;;;12.39;74.27
17054;BME280;8643;48.824;11.422;2024-02-21T10:27:14;97429.88;;;11.78;72.03
17054;BME280;8643;48.824;11.422;2024-02-21T10:29:49;97420.13;;;11.42;73.91
17054;BME280;8643;48.824;11.422;2024-02-21T10:32:19;97413.06;;;11.97;72.83
17054;BME280;8643;48.824;11.422;2024-02-21T10:34:47;97403.78;;;12.40;73.48
17054;BME280;8643;48.824;11.422;2024-02-21T10:37:21;97398.16;;;12.36;73.86
17054;BME280;8643;48.824;11.422;2024-02-21T10:39:49;97403.41;;;11.08;75.06
17054;BME280;8643;48.824;11.422;2024-02-21T10:42:22;97387.25;;;10.45;77.40
17054;BME280;8643;48.824;11.422;2024-02-21T10:44:51;97398.56;;;10.79;77.26
17054;BME280;8643;48.824;11.422;2024-02-21T10:47:23;97397.91;;;10.99;76.03
17054;BME280;8643;48.824;11.422;2024-02-21T10:50:04;97398.09;;;11.68;75.81
17054;BME280;8643;48.824;11.422;2024-02-21T10:52:49;97383.78;;;11.53;74.01
17054;BME280;8643;48.824;11.422;2024-02-21T10:55:26;97374.84;;;11.27;74.93
17054;BME280;8643;48.824;11.422;2024-02-21T10:57:58;97376.03;;;11.64;74.41
17054;BME280;8643;48.824;11.422;2024-02-21T11:00:30;97357.59;;;12.42;73.62
17054;BME280;8643;48.824;11.422;2024-02-21T11:02:59;97355.22;;;12.02;71.17
17054;BME280;8643;48.824;11.422;2024-02-21T11:05:30;97353.97;;;11.43;73.85
17054;BME280;8643;48.824;11.422;2024-02-21T11:08:01;97346.38;;;11.87;72.60
17054;BME280;8643;48.824;11.422;2024-02-21T11:10:30;97351.75;;;11.36;74.79
17054;BME280;8643;48.824;11.422;2024-02-21T11:13:07;97343.06;;;11.34;72.29
17054;BME280;8643;48.824;11.422;2024-02-21T11:15:36;97347.75;;;11.08;72.52
17054;BME280;8643;48.824;11.422;2024-02-21T11:18:05;97332.13;;;11.64;71.98
17054;BME280;8643;48.824;11.422;2024-02-21T11:20:36;97335.66;;;11.65;74.52
17054;BME280;8643;48.824;11.422;2024-02-21T11:23:05;97323.13;;;12.23;71.72
17054;BME280;8643;48.824;11.422;2024-02-21T11:25:34;97315.22;;;12.43;71.20
17054;BME280;8643;48.824;11.422;2024-02-21T11:28:04;97324.91;;;11.98;72.52
17054;BME280;8643;48.824;11.422;2024-02-21T11:30:36;97320.00;;;12.04;70.80
17054;BME280;8643;48.824;11.422;2024-02-21T11:33:07;97311.56;;;11.79;74.86
17054;BME280;8643;48.824;11.422;2024-02-21T11:35:37;97308.44;;;11.60;73.54
17054;BME280;8643;48.824;11.422;2024-02-21T11:38:09;97301.69;;;11.87;75.41
17054;BME280;8643;48.824;11.422;2024-02-21T11:40:44;97297.59;;;11.63;73.72
17054;BME280;8643;48.824;11.422;2024-02-21T11:43:13;97280.84;;;11.26;74.34
17054;BME280;8643;48.824;11.422;2024-02-21T11:45:43;97277.94;;;11.14;74.11
17054;BME280;8643;48.824;11.422;2024-02-21T11:48:11;97272.31;;;11.58;74.46
17054;BME280;8643;48.824;11.422;2024-02-21T11:50:41;97272.75;;;11.98;72.72
17054;BME280;8643;48.824;11.422;2024-02-21T11:53:09;97261.66;;;11.95;71.35
17054;BME280;8643;48.824;11.422;2024-02-21T11:55:38;97261.25;;;12.05;71.22
17054;BME280;8643;48.824;11.422;2024-02-21T11:58:07;97265.41;;;11.51;71.88
17054;BME280;8643;48.824;11.422;2024-02-21T12:00:35;97260.56;;;11.48;73.10
17054;BME280;8643;48.824;11.422;2024-02-21T12:03:07;97253.69;;;12.02;71.62
17054;BME280;8643;48.824;11.422;2024-02-21T12:05:36;97236.34;;;12.10;71.04
17054;BME280;8643;48.824;11.422;2024-02-21T12:08:05;97235.22;;;12.65;68.46
17054;BME280;8643;48.824;11.422;2024-02-21T12:10:35;97232.31;;;12.95;66.87
17054;BME280;8643;48.824;11.422;2024-02-21T12:13:07;97219.00;;;12.39;67.55
17054;BME280;8643;48.824;11.422;2024-02-21T12:15:38;97214.94;;;13.03;69.55
17054;BME280;8643;48.824;11.422;2024-02-21T12:18:10;97210.31;;;13.53;67.03
17054;BME280;8643;48.824;11.422;2024-02-21T12:20:39;97205.81;;;13.24;66.68
17054;BME280;8643;48.824;11.422;2024-02-21T12:23:10;97204.97;;;13.98;66.13
17054;BME280;8643;48.824;11.422;2024-02-21T12:25:39;97199.84;;;15.09;64.92
17054;BME280;8643;48.824;11.422;2024-02-21T12:28:08;97208.19;;;14.00;62.28
17054;BME280;8643;48.824;11.422;2024-02-21T12:30:37;97191.19;;;14.95;63.19
17054;BME280;8643;48.824;11.422;2024-02-21T12:33:08;97192.84;;;13.86;62.97
17054;BME280;8643;48.824;11.422;2024-02-21T12:35:37;97187.59;;;14.50;60.64
17054;BME280;8643;48.824;11.422;2024-02-21T12:38:05;97181.75;;;14.96;59.48
17054;BME280;8643;48.824;11.422;2024-02-21T12:40:34;97172.06;;;15.18;56.87
17054;BME280;8643;48.824;11.422;2024-02-21T12:43:03;97184.75;;;14.91;58.21
17054;BME280;8643;48.824;11.422;2024-02-21T12:45:32;97166.16;;;14.88;58.51
17054;BME280;8643;48.824;11.422;2024-02-21T12:48:01;97165.66;;;15.30;59.19
17054;BME280;8643;48.824;11.422;2024-02-21T12:50:33;97160.03;;;15.42;56.72
17054;BME280;8643;48.824;11.422;2024-02-21T12:53:02;97156.53;;;14.09;60.32
17054;BME280;8643;48.824;11.422;2024-02-21T12:55:42;97158.19;;;15.14;58.04
17054;BME280;8643;48.824;11.422;2024-02-21T12:58:11;97151.41;;;14.52;57.45
17054;BME280;8643;48.824;11.422;2024-02-21T13:00:41;97145.44;;;14.05;58.44
17054;BME280;8643;48.824;11.422;2024-02-21T13:03:10;97145.44;;;14.05;55.76
17054;BME280;8643;48.824;11.422;2024-02-21T13:05:39;97132.03;;;14.48;58.77
17054;BME280;8643;48.824;11.422;2024-02-21T13:08:09;97135.75;;;14.40;55.85
17054;BME280;8643;48.824;11.422;2024-02-21T13:10:39;97131.97;;;14.16;56.53
17054;BME280;8643;48.824;11.422;2024-02-21T13:13:07;97120.28;;;14.35;57.46